ADDS TAF Board (Experimental) INFO Settings
IDs: Format: Expanded Condensed

KIAH - Houston/Bush Intl, TX, US

Issued at 1648 UTC 24 May 2016
Updated at: 1734 UTC 24 May 2016
Time1725Z 24/18Z 24/19Z 24/20Z 24/21Z 24/22Z 24/23Z 25/00Z 25/01Z 25/02Z 25/03Z 25/04Z 25/05Z 25/06Z
Type OBS PRVL PRVL PRVL PRVL PRVL PRVL PRVL PRVL PRVL PRVL PRVL PRVL PRVL
VIS 10 >6 >6 >6 >6 >6 >6 >6 >6 >6 >6 >6 >6 >6
CIG 35 35 35 35 35 35 35 35 35 -- -- -- -- 25
Cover BKN BKN BKN BKN BKN BKN BKN BKN BKN SCT SCT SCT SCT BKN
FltCat VFR VFR VFR VFR VFR VFR VFR VFR VFR VFR VFR VFR VFR MVFR
WX -- VCSH VCSH VCSH VCSH VCSH VCSH VCSH VCSH -- -- -- -- --
WDir 130 140 140 140 140 140 140 140 140 150 150 150 150 150
WSpd 10 14 14 14 14 14 14 14 14 8 8 8 8 7
WGst -- 19 19 19 19 19 19 19 19 -- -- -- -- --
R08/26
XWnd -6 -11 -11 -11 -11 -11 -11 -11 -11 -7 -7 -7 -7 -6
XGst -- -15 -15 -15 -15 -15 -15 -15 -15 -- -- -- -- --
HWnd 8 9 9 9 9 9 9 9 9 4 4 4 4 4
HGst -- 12 12 12 12 12 12 12 12 -- -- -- -- --
R09/27
XWnd -6 -11 -11 -11 -11 -11 -11 -11 -11 -7 -7 -7 -7 -6
XGst -- -15 -15 -15 -15 -15 -15 -15 -15 -- -- -- -- --
HWnd 8 9 9 9 9 9 9 9 9 4 4 4 4 4
HGst -- 12 12 12 12 12 12 12 12 -- -- -- -- --
R15/33
XWnd 4 3 3 3 3 3 3 3 3 0 0 0 0 0
XGst -- 4 4 4 4 4 4 4 4 -- -- -- -- --
HWnd 9 14 14 14 14 14 14 14 14 8 8 8 8 7
HGst -- 19 19 19 19 19 19 19 19 -- -- -- -- --

NOTE: TEMPO conditions in [brackets]. Keep in mind TEMPO conditions might be better (lower impact) than prevailing conditions.

Raw TAF
KIAH 241648Z 2417/2518 15011KT P6SM BKN020 BKN220
  FM241800 14014G19KT P6SM VCSH SCT025 BKN035
  FM250200 15008KT P6SM SCT250
  FM250600 15007KT P6SM SCT015 BKN025


Raw METAR
KIAH 241725Z 13010KT 10SM SCT025 BKN035 BKN250 29/24 A3001 RMK AO2
KIAH 241653Z 14012KT 10SM BKN025 BKN250 28/23 A3001 RMK AO2 SLP161 T02780233
KIAH 241553Z 15009KT 10SM BKN022 BKN250 28/23 A2999 RMK AO2 SLP155 T02780233
KIAH 241453Z 15011KT 10SM BKN020 BKN220 27/23 A2998 RMK AO2 SLP150 T02670228 53018

METAR Board
Radar Display
Forecast Discussion

TAF Board Legend

Potential Impact
Threat None Slight Moderate High
Visibility (sm) ≥5.1 5.1>X≥3 3>X≥1 <1
Ceiling (100 ft) ≥30.1 30.1>X≥10 10>X≥5 <5
Wind Speed (kt) <10 10≤X<20 20≤X<30 ≥30
Wind Gust (kt) <15 15≤X<25 25≤X<35 ≥35
Weather No Wx Reported VCTS,-TS,-FZRA,SN TS,FZRA +TS,+FZRA,+SN